Bloomburg, Texas
Current Conditions -  °F | °C
As of 1:53 AM on Thursday 27 Nov 2014 (Local Time) from KTXK Reporting Station
Clear Clear  
Wind Chill: 38°   Ceiling: Unl
Heat Index: 43°   Visibility: 10mi
Dew Point: 28°   Wind: 9mph
Humidity: 56%   Direction: 290°WNW
Pressure: 30.4"   Gusts: NA
Location:  33.14°N, 94.06°W
Report Text: KTXK 270753Z AUTO 29008KT 10SM CLR 06/M02 A3040 RMK AO2 SLP292 T00611022
Loading
Personal Weather Stations






























Interactive Weather Map New forecast layout! Learn more

10-Day Weather Forecast

Advertisements
Track Severe Weather on mobile